TAF KCSG
KCSG 072354Z 0800/0824 08004KT P6SM VCSH SCT015 OVC025 FM080400 00000KT P6SM VCSH OVC010 TEMPO 0804/0808 4SM -SHRA OVC008 FM080800 00000KT 3SM -SHRA BR OVC004 FM081500 30004KT 4SM BR VCSH BKN004 FM081900 31007KT P6SM BKN007 FM082200 33006KT P6SM SCT060=
METAR KCSG
WC KCSG
WS KCSG
WV KCSG